sensor_id;sensor_type;location;lat;lon;timestamp;P1;durP1;ratioP1;P2;durP2;ratioP2
8413;SDS011;4244;48.684;9.028;2023-05-02T00:00:24;7.40;;;6.70;;
8413;SDS011;4244;48.684;9.028;2023-05-02T00:02:50;7.77;;;7.07;;
8413;SDS011;4244;48.684;9.028;2023-05-02T00:05:15;6.73;;;6.13;;
8413;SDS011;4244;48.684;9.028;2023-05-02T00:07:41;7.87;;;7.10;;
8413;SDS011;4244;48.684;9.028;2023-05-02T00:10:07;6.93;;;6.33;;
8413;SDS011;4244;48.684;9.028;2023-05-02T00:12:33;5.37;;;4.90;;
8413;SDS011;4244;48.684;9.028;2023-05-02T00:14:59;6.43;;;5.83;;
8413;SDS011;4244;48.684;9.028;2023-05-02T00:17:25;6.20;;;5.70;;
8413;SDS011;4244;48.684;9.028;2023-05-02T00:19:51;6.20;;;5.70;;
8413;SDS011;4244;48.684;9.028;2023-05-02T00:22:16;6.70;;;5.80;;
8413;SDS011;4244;48.684;9.028;2023-05-02T00:24:42;6.73;;;6.03;;
8413;SDS011;4244;48.684;9.028;2023-05-02T00:27:08;6.83;;;6.33;;
8413;SDS011;4244;48.684;9.028;2023-05-02T00:29:33;6.63;;;6.13;;
8413;SDS011;4244;48.684;9.028;2023-05-02T00:31:59;7.30;;;6.70;;
8413;SDS011;4244;48.684;9.028;2023-05-02T00:34:28;7.83;;;7.13;;
8413;SDS011;4244;48.684;9.028;2023-05-02T00:36:55;7.80;;;7.00;;
8413;SDS011;4244;48.684;9.028;2023-05-02T00:39:21;7.57;;;6.87;;
8413;SDS011;4244;48.684;9.028;2023-05-02T00:41:46;6.47;;;5.83;;
8413;SDS011;4244;48.684;9.028;2023-05-02T00:44:12;7.30;;;6.70;;
8413;SDS011;4244;48.684;9.028;2023-05-02T00:46:38;7.17;;;6.57;;
8413;SDS011;4244;48.684;9.028;2023-05-02T00:49:04;7.93;;;7.13;;
8413;SDS011;4244;48.684;9.028;2023-05-02T00:51:31;7.17;;;6.57;;
8413;SDS011;4244;48.684;9.028;2023-05-02T00:53:57;7.53;;;6.93;;
8413;SDS011;4244;48.684;9.028;2023-05-02T00:56:24;8.53;;;7.83;;
8413;SDS011;4244;48.684;9.028;2023-05-02T00:58:50;7.83;;;7.13;;
8413;SDS011;4244;48.684;9.028;2023-05-02T01:01:35;7.67;;;7.00;;
8413;SDS011;4244;48.684;9.028;2023-05-02T01:15:08;8.23;;;7.43;;
8413;SDS011;4244;48.684;9.028;2023-05-02T01:17:36;7.50;;;6.90;;
8413;SDS011;4244;48.684;9.028;2023-05-02T01:20:07;8.20;;;7.50;;
8413;SDS011;4244;48.684;9.028;2023-05-02T01:22:37;8.73;;;7.93;;
8413;SDS011;4244;48.684;9.028;2023-05-02T01:27:48;15.60;;;9.43;;
8413;SDS011;4244;48.684;9.028;2023-05-02T01:30:20;9.67;;;8.87;;
8413;SDS011;4244;48.684;9.028;2023-05-02T01:32:47;9.30;;;8.40;;
8413;SDS011;4244;48.684;9.028;2023-05-02T01:35:14;9.33;;;8.50;;
8413;SDS011;4244;48.684;9.028;2023-05-02T01:37:42;9.30;;;8.50;;
8413;SDS011;4244;48.684;9.028;2023-05-02T01:40:09;10.43;;;9.33;;
8413;SDS011;4244;48.684;9.028;2023-05-02T01:42:37;9.60;;;8.70;;
8413;SDS011;4244;48.684;9.028;2023-05-02T01:45:06;11.00;;;10.00;;
8413;SDS011;4244;48.684;9.028;2023-05-02T01:47:34;9.77;;;8.87;;
8413;SDS011;4244;48.684;9.028;2023-05-02T01:50:02;9.60;;;8.70;;
8413;SDS011;4244;48.684;9.028;2023-05-02T01:52:28;9.43;;;8.63;;
8413;SDS011;4244;48.684;9.028;2023-05-02T01:54:54;10.20;;;9.20;;
8413;SDS011;4244;48.684;9.028;2023-05-02T01:57:22;10.17;;;9.27;;
8413;SDS011;4244;48.684;9.028;2023-05-02T01:59:48;10.10;;;9.07;;
8413;SDS011;4244;48.684;9.028;2023-05-02T02:02:15;9.33;;;8.53;;
8413;SDS011;4244;48.684;9.028;2023-05-02T02:04:41;9.63;;;8.73;;
8413;SDS011;4244;48.684;9.028;2023-05-02T02:07:07;9.83;;;8.93;;
8413;SDS011;4244;48.684;9.028;2023-05-02T02:09:34;9.33;;;8.43;;
8413;SDS011;4244;48.684;9.028;2023-05-02T02:14:34;11.33;;;10.30;;
8413;SDS011;4244;48.684;9.028;2023-05-02T02:17:01;9.77;;;8.77;;
8413;SDS011;4244;48.684;9.028;2023-05-02T02:19:31;9.23;;;8.43;;
8413;SDS011;4244;48.684;9.028;2023-05-02T02:21:57;9.97;;;9.10;;
8413;SDS011;4244;48.684;9.028;2023-05-02T02:24:24;10.53;;;9.63;;
8413;SDS011;4244;48.684;9.028;2023-05-02T02:26:50;10.00;;;9.20;;
8413;SDS011;4244;48.684;9.028;2023-05-02T02:29:16;10.63;;;9.73;;
8413;SDS011;4244;48.684;9.028;2023-05-02T02:31:41;10.83;;;9.80;;
8413;SDS011;4244;48.684;9.028;2023-05-02T02:34:07;13.13;;;9.83;;
8413;SDS011;4244;48.684;9.028;2023-05-02T02:36:50;10.70;;;9.70;;
8413;SDS011;4244;48.684;9.028;2023-05-02T02:52:53;11.07;;;10.00;;
8413;SDS011;4244;48.684;9.028;2023-05-02T03:00:50;10.53;;;9.57;;
8413;SDS011;4244;48.684;9.028;2023-05-02T03:03:17;11.10;;;10.10;;
8413;SDS011;4244;48.684;9.028;2023-05-02T03:05:44;10.70;;;9.80;;
8413;SDS011;4244;48.684;9.028;2023-05-02T03:08:10;10.93;;;10.03;;
8413;SDS011;4244;48.684;9.028;2023-05-02T03:10:36;10.90;;;10.00;;
8413;SDS011;4244;48.684;9.028;2023-05-02T03:13:02;10.77;;;9.83;;
8413;SDS011;4244;48.684;9.028;2023-05-02T03:18:18;10.23;;;9.33;;
8413;SDS011;4244;48.684;9.028;2023-05-02T03:20:43;12.07;;;10.83;;
8413;SDS011;4244;48.684;9.028;2023-05-02T03:23:09;11.90;;;10.70;;
8413;SDS011;4244;48.684;9.028;2023-05-02T03:25:35;11.53;;;10.53;;
8413;SDS011;4244;48.684;9.028;2023-05-02T03:28:01;11.40;;;10.37;;
8413;SDS011;4244;48.684;9.028;2023-05-02T03:30:27;12.03;;;10.93;;
8413;SDS011;4244;48.684;9.028;2023-05-02T03:32:52;11.23;;;10.23;;
8413;SDS011;4244;48.684;9.028;2023-05-02T03:35:18;13.37;;;11.97;;
8413;SDS011;4244;48.684;9.028;2023-05-02T03:37:44;11.23;;;10.33;;
8413;SDS011;4244;48.684;9.028;2023-05-02T03:40:10;12.30;;;11.20;;
8413;SDS011;4244;48.684;9.028;2023-05-02T03:42:36;10.67;;;9.77;;
8413;SDS011;4244;48.684;9.028;2023-05-02T03:45:08;12.70;;;11.60;;
8413;SDS011;4244;48.684;9.028;2023-05-02T03:47:34;12.03;;;11.03;;
8413;SDS011;4244;48.684;9.028;2023-05-02T03:50:00;12.00;;;10.90;;
8413;SDS011;4244;48.684;9.028;2023-05-02T03:52:27;12.50;;;11.40;;
8413;SDS011;4244;48.684;9.028;2023-05-02T03:54:53;12.23;;;11.13;;
8413;SDS011;4244;48.684;9.028;2023-05-02T03:57:18;12.87;;;11.30;;
8413;SDS011;4244;48.684;9.028;2023-05-02T03:59:45;12.37;;;11.23;;
8413;SDS011;4244;48.684;9.028;2023-05-02T04:02:11;12.20;;;11.10;;
8413;SDS011;4244;48.684;9.028;2023-05-02T04:04:37;12.37;;;11.23;;
8413;SDS011;4244;48.684;9.028;2023-05-02T04:07:04;11.40;;;10.40;;
8413;SDS011;4244;48.684;9.028;2023-05-02T04:09:31;12.47;;;11.47;;
8413;SDS011;4244;48.684;9.028;2023-05-02T04:11:57;11.87;;;10.77;;
8413;SDS011;4244;48.684;9.028;2023-05-02T04:14:23;12.27;;;11.07;;
8413;SDS011;4244;48.684;9.028;2023-05-02T04:16:49;12.53;;;11.33;;
8413;SDS011;4244;48.684;9.028;2023-05-02T04:19:15;11.83;;;10.83;;
8413;SDS011;4244;48.684;9.028;2023-05-02T04:21:42;12.00;;;10.87;;
8413;SDS011;4244;48.684;9.028;2023-05-02T04:24:08;11.57;;;10.57;;
8413;SDS011;4244;48.684;9.028;2023-05-02T04:26:34;12.43;;;11.33;;
8413;SDS011;4244;48.684;9.028;2023-05-02T04:29:00;12.47;;;11.37;;
8413;SDS011;4244;48.684;9.028;2023-05-02T04:31:26;22.53;;;12.00;;
8413;SDS011;4244;48.684;9.028;2023-05-02T04:33:52;11.40;;;10.40;;
8413;SDS011;4244;48.684;9.028;2023-05-02T04:36:18;13.20;;;11.10;;
8413;SDS011;4244;48.684;9.028;2023-05-02T04:38:44;12.43;;;11.30;;
8413;SDS011;4244;48.684;9.028;2023-05-02T04:41:09;12.23;;;11.10;;
8413;SDS011;4244;48.684;9.028;2023-05-02T04:43:35;11.80;;;10.80;;
8413;SDS011;4244;48.684;9.028;2023-05-02T04:46:01;13.83;;;12.53;;
8413;SDS011;4244;48.684;9.028;2023-05-02T04:48:27;11.90;;;10.83;;
8413;SDS011;4244;48.684;9.028;2023-05-02T04:50:52;12.23;;;11.13;;
8413;SDS011;4244;48.684;9.028;2023-05-02T04:53:20;11.70;;;10.70;;
8413;SDS011;4244;48.684;9.028;2023-05-02T04:55:46;11.63;;;10.70;;
8413;SDS011;4244;48.684;9.028;2023-05-02T04:58:12;13.50;;;12.30;;
8413;SDS011;4244;48.684;9.028;2023-05-02T05:00:37;12.20;;;11.10;;
8413;SDS011;4244;48.684;9.028;2023-05-02T05:03:03;12.27;;;11.27;;
8413;SDS011;4244;48.684;9.028;2023-05-02T05:05:30;13.40;;;12.20;;
8413;SDS011;4244;48.684;9.028;2023-05-02T05:07:56;12.80;;;11.70;;
8413;SDS011;4244;48.684;9.028;2023-05-02T05:10:22;12.77;;;11.67;;
8413;SDS011;4244;48.684;9.028;2023-05-02T05:12:47;12.50;;;11.30;;
8413;SDS011;4244;48.684;9.028;2023-05-02T05:15:13;11.80;;;10.73;;
8413;SDS011;4244;48.684;9.028;2023-05-02T05:17:39;11.60;;;10.60;;
8413;SDS011;4244;48.684;9.028;2023-05-02T05:20:06;12.37;;;11.07;;
8413;SDS011;4244;48.684;9.028;2023-05-02T05:22:39;12.20;;;10.60;;
8413;SDS011;4244;48.684;9.028;2023-05-02T05:25:06;11.50;;;10.50;;
8413;SDS011;4244;48.684;9.028;2023-05-02T05:27:34;10.90;;;9.90;;
8413;SDS011;4244;48.684;9.028;2023-05-02T05:30:01;11.23;;;10.13;;
8413;SDS011;4244;48.684;9.028;2023-05-02T05:32:31;12.20;;;11.20;;
8413;SDS011;4244;48.684;9.028;2023-05-02T05:34:57;11.63;;;10.53;;
8413;SDS011;4244;48.684;9.028;2023-05-02T05:37:23;11.17;;;10.20;;
8413;SDS011;4244;48.684;9.028;2023-05-02T05:39:49;10.83;;;9.93;;
8413;SDS011;4244;48.684;9.028;2023-05-02T05:42:14;11.73;;;10.63;;
8413;SDS011;4244;48.684;9.028;2023-05-02T05:44:40;12.57;;;11.27;;
8413;SDS011;4244;48.684;9.028;2023-05-02T05:47:06;12.27;;;11.10;;
8413;SDS011;4244;48.684;9.028;2023-05-02T05:49:32;13.83;;;12.53;;
8413;SDS011;4244;48.684;9.028;2023-05-02T05:52:00;13.30;;;12.00;;
8413;SDS011;4244;48.684;9.028;2023-05-02T05:54:26;13.93;;;12.70;;
8413;SDS011;4244;48.684;9.028;2023-05-02T05:56:52;13.00;;;11.90;;
8413;SDS011;4244;48.684;9.028;2023-05-02T05:59:17;13.30;;;12.10;;
8413;SDS011;4244;48.684;9.028;2023-05-02T06:01:43;13.30;;;12.10;;
8413;SDS011;4244;48.684;9.028;2023-05-02T06:04:09;14.50;;;13.20;;
8413;SDS011;4244;48.684;9.028;2023-05-02T06:06:34;13.63;;;12.53;;
8413;SDS011;4244;48.684;9.028;2023-05-02T06:09:00;15.07;;;13.50;;
8413;SDS011;4244;48.684;9.028;2023-05-02T06:11:26;15.30;;;13.70;;
8413;SDS011;4244;48.684;9.028;2023-05-02T06:13:52;13.50;;;12.30;;
8413;SDS011;4244;48.684;9.028;2023-05-02T06:16:18;13.70;;;12.40;;
8413;SDS011;4244;48.684;9.028;2023-05-02T06:18:44;13.93;;;12.50;;
8413;SDS011;4244;48.684;9.028;2023-05-02T06:21:10;13.87;;;12.57;;
8413;SDS011;4244;48.684;9.028;2023-05-02T06:23:35;14.33;;;13.13;;
8413;SDS011;4244;48.684;9.028;2023-05-02T06:26:02;15.27;;;13.87;;
8413;SDS011;4244;48.684;9.028;2023-05-02T06:28:31;15.83;;;14.10;;
8413;SDS011;4244;48.684;9.028;2023-05-02T06:30:57;15.73;;;14.37;;
8413;SDS011;4244;48.684;9.028;2023-05-02T06:33:23;16.60;;;15.00;;
8413;SDS011;4244;48.684;9.028;2023-05-02T06:35:51;15.93;;;14.43;;
8413;SDS011;4244;48.684;9.028;2023-05-02T06:38:19;17.00;;;15.43;;
8413;SDS011;4244;48.684;9.028;2023-05-02T06:40:45;17.00;;;15.40;;
8413;SDS011;4244;48.684;9.028;2023-05-02T06:43:11;16.70;;;15.10;;
8413;SDS011;4244;48.684;9.028;2023-05-02T06:45:37;17.47;;;15.90;;
8413;SDS011;4244;48.684;9.028;2023-05-02T06:48:03;17.23;;;15.73;;
8413;SDS011;4244;48.684;9.028;2023-05-02T06:50:29;18.43;;;16.50;;
8413;SDS011;4244;48.684;9.028;2023-05-02T06:52:54;18.90;;;17.10;;
8413;SDS011;4244;48.684;9.028;2023-05-02T06:55:20;19.10;;;17.40;;
8413;SDS011;4244;48.684;9.028;2023-05-02T06:57:47;17.50;;;15.90;;
8413;SDS011;4244;48.684;9.028;2023-05-02T07:00:14;18.70;;;16.90;;
8413;SDS011;4244;48.684;9.028;2023-05-02T07:02:41;20.30;;;18.40;;
8413;SDS011;4244;48.684;9.028;2023-05-02T07:05:07;21.47;;;19.47;;
8413;SDS011;4244;48.684;9.028;2023-05-02T07:07:33;19.87;;;18.00;;
8413;SDS011;4244;48.684;9.028;2023-05-02T07:09:58;19.57;;;17.73;;
8413;SDS011;4244;48.684;9.028;2023-05-02T07:12:24;18.47;;;16.77;;
8413;SDS011;4244;48.684;9.028;2023-05-02T07:14:51;21.37;;;19.47;;
8413;SDS011;4244;48.684;9.028;2023-05-02T07:17:16;19.90;;;18.00;;
8413;SDS011;4244;48.684;9.028;2023-05-02T07:19:42;19.17;;;17.43;;
8413;SDS011;4244;48.684;9.028;2023-05-02T07:22:08;18.43;;;16.83;;
8413;SDS011;4244;48.684;9.028;2023-05-02T07:24:34;19.83;;;16.80;;
8413;SDS011;4244;48.684;9.028;2023-05-02T07:26:59;18.63;;;16.93;;
8413;SDS011;4244;48.684;9.028;2023-05-02T07:29:27;18.10;;;16.50;;
8413;SDS011;4244;48.684;9.028;2023-05-02T07:31:53;18.83;;;16.93;;
8413;SDS011;4244;48.684;9.028;2023-05-02T07:34:18;21.60;;;19.60;;
8413;SDS011;4244;48.684;9.028;2023-05-02T07:36:44;21.40;;;19.20;;
8413;SDS011;4244;48.684;9.028;2023-05-02T07:39:10;21.57;;;19.40;;
8413;SDS011;4244;48.684;9.028;2023-05-02T07:41:35;20.97;;;18.97;;
8413;SDS011;4244;48.684;9.028;2023-05-02T07:44:01;21.30;;;19.20;;
8413;SDS011;4244;48.684;9.028;2023-05-02T07:46:26;20.07;;;18.27;;
8413;SDS011;4244;48.684;9.028;2023-05-02T07:48:52;23.80;;;21.40;;
8413;SDS011;4244;48.684;9.028;2023-05-02T07:51:18;25.80;;;22.73;;
8413;SDS011;4244;48.684;9.028;2023-05-02T07:53:45;25.20;;;22.80;;
8413;SDS011;4244;48.684;9.028;2023-05-02T07:56:14;27.20;;;24.70;;
8413;SDS011;4244;48.684;9.028;2023-05-02T07:58:40;23.80;;;21.57;;
8413;SDS011;4244;48.684;9.028;2023-05-02T08:01:05;25.93;;;23.53;;
8413;SDS011;4244;48.684;9.028;2023-05-02T08:03:32;28.50;;;25.73;;
8413;SDS011;4244;48.684;9.028;2023-05-02T08:05:57;30.50;;;27.53;;
8413;SDS011;4244;48.684;9.028;2023-05-02T08:08:23;30.70;;;27.67;;
8413;SDS011;4244;48.684;9.028;2023-05-02T08:10:49;33.87;;;30.67;;
8413;SDS011;4244;48.684;9.028;2023-05-02T08:13:15;34.10;;;30.80;;
8413;SDS011;4244;48.684;9.028;2023-05-02T08:15:41;37.83;;;33.87;;
8413;SDS011;4244;48.684;9.028;2023-05-02T08:18:07;34.47;;;31.07;;
8413;SDS011;4244;48.684;9.028;2023-05-02T08:20:32;36.97;;;33.27;;
8413;SDS011;4244;48.684;9.028;2023-05-02T08:22:58;37.10;;;33.53;;
8413;SDS011;4244;48.684;9.028;2023-05-02T08:25:24;39.10;;;35.23;;
8413;SDS011;4244;48.684;9.028;2023-05-02T08:27:49;34.53;;;31.20;;
8413;SDS011;4244;48.684;9.028;2023-05-02T08:30:15;36.83;;;33.23;;
8413;SDS011;4244;48.684;9.028;2023-05-02T08:32:41;36.97;;;33.07;;
8413;SDS011;4244;48.684;9.028;2023-05-02T08:35:08;37.30;;;33.70;;
8413;SDS011;4244;48.684;9.028;2023-05-02T08:37:33;36.93;;;33.43;;
8413;SDS011;4244;48.684;9.028;2023-05-02T08:40:00;34.33;;;30.93;;
8413;SDS011;4244;48.684;9.028;2023-05-02T08:42:27;38.07;;;34.20;;
8413;SDS011;4244;48.684;9.028;2023-05-02T08:44:53;34.70;;;31.40;;
8413;SDS011;4244;48.684;9.028;2023-05-02T08:47:19;33.80;;;30.63;;
8413;SDS011;4244;48.684;9.028;2023-05-02T08:49:46;34.40;;;31.10;;
8413;SDS011;4244;48.684;9.028;2023-05-02T08:52:14;32.97;;;29.70;;
8413;SDS011;4244;48.684;9.028;2023-05-02T08:54:41;31.33;;;28.33;;
8413;SDS011;4244;48.684;9.028;2023-05-02T08:57:07;32.10;;;29.20;;
8413;SDS011;4244;48.684;9.028;2023-05-02T08:59:33;32.27;;;28.97;;
8413;SDS011;4244;48.684;9.028;2023-05-02T09:02:04;33.10;;;29.97;;
8413;SDS011;4244;48.684;9.028;2023-05-02T09:04:37;31.50;;;28.50;;
8413;SDS011;4244;48.684;9.028;2023-05-02T09:07:05;33.67;;;30.67;;
8413;SDS011;4244;48.684;9.028;2023-05-02T09:09:31;30.63;;;27.60;;
8413;SDS011;4244;48.684;9.028;2023-05-02T09:11:58;29.00;;;26.30;;
8413;SDS011;4244;48.684;9.028;2023-05-02T09:14:23;33.07;;;29.83;;
8413;SDS011;4244;48.684;9.028;2023-05-02T09:16:50;30.57;;;27.57;;
8413;SDS011;4244;48.684;9.028;2023-05-02T09:19:24;28.30;;;25.70;;
8413;SDS011;4244;48.684;9.028;2023-05-02T09:21:50;25.90;;;23.50;;
8413;SDS011;4244;48.684;9.028;2023-05-02T09:24:19;27.27;;;24.63;;
8413;SDS011;4244;48.684;9.028;2023-05-02T09:27:02;25.13;;;22.83;;
8413;SDS011;4244;48.684;9.028;2023-05-02T09:29:28;23.13;;;21.03;;
8413;SDS011;4244;48.684;9.028;2023-05-02T09:31:59;26.67;;;23.90;;
8413;SDS011;4244;48.684;9.028;2023-05-02T09:34:28;32.33;;;25.40;;
8413;SDS011;4244;48.684;9.028;2023-05-02T09:36:55;27.30;;;24.73;;
8413;SDS011;4244;48.684;9.028;2023-05-02T09:41:48;32.07;;;28.93;;
8413;SDS011;4244;48.684;9.028;2023-05-02T09:44:15;28.50;;;25.90;;
8413;SDS011;4244;48.684;9.028;2023-05-02T09:46:48;31.63;;;28.63;;
8413;SDS011;4244;48.684;9.028;2023-05-02T09:49:17;28.33;;;25.83;;
8413;SDS011;4244;48.684;9.028;2023-05-02T09:51:44;30.07;;;27.43;;
8413;SDS011;4244;48.684;9.028;2023-05-02T09:54:11;28.93;;;26.30;;
8413;SDS011;4244;48.684;9.028;2023-05-02T09:59:20;25.40;;;23.20;;
8413;SDS011;4244;48.684;9.028;2023-05-02T10:01:46;29.90;;;26.83;;
8413;SDS011;4244;48.684;9.028;2023-05-02T10:04:19;30.70;;;27.80;;
8413;SDS011;4244;48.684;9.028;2023-05-02T10:06:45;27.37;;;24.70;;
8413;SDS011;4244;48.684;9.028;2023-05-02T10:09:11;28.70;;;25.17;;
8413;SDS011;4244;48.684;9.028;2023-05-02T10:11:43;27.20;;;24.80;;
8413;SDS011;4244;48.684;9.028;2023-05-02T10:14:09;26.23;;;23.63;;
8413;SDS011;4244;48.684;9.028;2023-05-02T10:16:43;26.73;;;24.33;;
8413;SDS011;4244;48.684;9.028;2023-05-02T10:19:17;11.83;;;10.77;;
8413;SDS011;4244;48.684;9.028;2023-05-02T10:21:52;16.27;;;14.77;;
8413;SDS011;4244;48.684;9.028;2023-05-02T10:24:19;16.50;;;13.93;;
8413;SDS011;4244;48.684;9.028;2023-05-02T10:26:45;24.10;;;21.90;;
8413;SDS011;4244;48.684;9.028;2023-05-02T10:29:12;25.27;;;22.80;;
8413;SDS011;4244;48.684;9.028;2023-05-02T10:31:38;22.67;;;20.80;;
8413;SDS011;4244;48.684;9.028;2023-05-02T10:34:05;20.83;;;18.90;;
8413;SDS011;4244;48.684;9.028;2023-05-02T10:36:34;22.97;;;20.87;;
8413;SDS011;4244;48.684;9.028;2023-05-02T10:39:00;19.07;;;17.37;;
8413;SDS011;4244;48.684;9.028;2023-05-02T10:41:28;18.80;;;17.10;;
8413;SDS011;4244;48.684;9.028;2023-05-02T10:43:55;19.23;;;17.57;;
8413;SDS011;4244;48.684;9.028;2023-05-02T10:46:34;16.80;;;15.30;;
8413;SDS011;4244;48.684;9.028;2023-05-02T10:49:02;16.30;;;14.80;;
8413;SDS011;4244;48.684;9.028;2023-05-02T10:51:28;17.50;;;16.00;;
8413;SDS011;4244;48.684;9.028;2023-05-02T10:54:15;17.93;;;16.43;;
8413;SDS011;4244;48.684;9.028;2023-05-02T11:02:03;14.63;;;13.33;;
8413;SDS011;4244;48.684;9.028;2023-05-02T11:07:29;18.67;;;17.07;;
8413;SDS011;4244;48.684;9.028;2023-05-02T11:15:11;15.03;;;13.63;;
8413;SDS011;4244;48.684;9.028;2023-05-02T11:17:58;14.60;;;13.40;;
8413;SDS011;4244;48.684;9.028;2023-05-02T11:20:34;15.83;;;14.33;;
8413;SDS011;4244;48.684;9.028;2023-05-02T11:25:48;15.87;;;14.40;;
8413;SDS011;4244;48.684;9.028;2023-05-02T11:29:00;15.60;;;14.30;;
8413;SDS011;4244;48.684;9.028;2023-05-02T11:31:01;16.83;;;15.43;;
8413;SDS011;4244;48.684;9.028;2023-05-02T11:33:31;15.97;;;14.57;;
8413;SDS011;4244;48.684;9.028;2023-05-02T11:35:57;19.43;;;17.63;;
8413;SDS011;4244;48.684;9.028;2023-05-02T11:38:23;17.17;;;15.77;;
8413;SDS011;4244;48.684;9.028;2023-05-02T11:40:50;15.23;;;14.00;;
8413;SDS011;4244;48.684;9.028;2023-05-02T11:43:20;17.70;;;16.30;;
8413;SDS011;4244;48.684;9.028;2023-05-02T11:45:46;16.60;;;15.00;;
8413;SDS011;4244;48.684;9.028;2023-05-02T11:48:12;16.07;;;14.77;;
8413;SDS011;4244;48.684;9.028;2023-05-02T11:50:44;17.40;;;15.90;;
8413;SDS011;4244;48.684;9.028;2023-05-02T11:53:14;21.13;;;19.33;;
8413;SDS011;4244;48.684;9.028;2023-05-02T11:55:54;17.07;;;15.57;;
8413;SDS011;4244;48.684;9.028;2023-05-02T11:58:21;15.30;;;14.10;;
8413;SDS011;4244;48.684;9.028;2023-05-02T12:00:48;20.20;;;18.57;;
8413;SDS011;4244;48.684;9.028;2023-05-02T12:03:33;18.43;;;16.73;;
8413;SDS011;4244;48.684;9.028;2023-05-02T12:06:07;14.60;;;13.40;;
8413;SDS011;4244;48.684;9.028;2023-05-02T12:08:37;18.40;;;16.80;;
8413;SDS011;4244;48.684;9.028;2023-05-02T12:11:04;19.23;;;17.37;;
8413;SDS011;4244;48.684;9.028;2023-05-02T12:13:30;14.63;;;13.43;;
8413;SDS011;4244;48.684;9.028;2023-05-02T12:15:57;19.87;;;17.97;;
8413;SDS011;4244;48.684;9.028;2023-05-02T12:18:23;16.10;;;14.57;;
8413;SDS011;4244;48.684;9.028;2023-05-02T12:20:51;18.50;;;16.93;;
8413;SDS011;4244;48.684;9.028;2023-05-02T12:23:21;20.93;;;19.13;;
8413;SDS011;4244;48.684;9.028;2023-05-02T12:25:48;26.43;;;20.90;;
8413;SDS011;4244;48.684;9.028;2023-05-02T12:28:16;22.23;;;20.23;;
8413;SDS011;4244;48.684;9.028;2023-05-02T12:30:43;21.50;;;19.53;;
8413;SDS011;4244;48.684;9.028;2023-05-02T12:33:10;24.03;;;21.83;;
8413;SDS011;4244;48.684;9.028;2023-05-02T12:35:36;23.30;;;21.40;;
8413;SDS011;4244;48.684;9.028;2023-05-02T12:38:18;20.83;;;19.13;;
8413;SDS011;4244;48.684;9.028;2023-05-02T12:40:55;22.37;;;20.30;;
8413;SDS011;4244;48.684;9.028;2023-05-02T12:43:23;22.27;;;20.40;;
8413;SDS011;4244;48.684;9.028;2023-05-02T12:45:49;22.83;;;20.93;;
8413;SDS011;4244;48.684;9.028;2023-05-02T12:50:44;25.13;;;23.03;;
8413;SDS011;4244;48.684;9.028;2023-05-02T12:53:10;23.10;;;20.97;;
8413;SDS011;4244;48.684;9.028;2023-05-02T12:55:36;26.70;;;24.30;;
8413;SDS011;4244;48.684;9.028;2023-05-02T12:58:05;25.73;;;23.53;;
8413;SDS011;4244;48.684;9.028;2023-05-02T13:00:34;22.27;;;20.27;;
8413;SDS011;4244;48.684;9.028;2023-05-02T13:03:01;24.00;;;21.80;;
8413;SDS011;4244;48.684;9.028;2023-05-02T13:05:26;22.37;;;20.27;;
8413;SDS011;4244;48.684;9.028;2023-05-02T13:07:52;26.33;;;23.93;;
8413;SDS011;4244;48.684;9.028;2023-05-02T13:10:20;24.30;;;22.10;;
8413;SDS011;4244;48.684;9.028;2023-05-02T13:12:47;23.83;;;21.77;;
8413;SDS011;4244;48.684;9.028;2023-05-02T13:15:13;22.03;;;20.13;;
8413;SDS011;4244;48.684;9.028;2023-05-02T13:17:44;23.67;;;21.53;;
8413;SDS011;4244;48.684;9.028;2023-05-02T13:20:13;26.00;;;23.60;;
8413;SDS011;4244;48.684;9.028;2023-05-02T13:22:40;23.77;;;21.63;;
8413;SDS011;4244;48.684;9.028;2023-05-02T13:25:06;24.90;;;22.70;;
8413;SDS011;4244;48.684;9.028;2023-05-02T13:27:32;22.83;;;20.80;;
8413;SDS011;4244;48.684;9.028;2023-05-02T13:29:58;24.93;;;22.43;;
8413;SDS011;4244;48.684;9.028;2023-05-02T13:32:27;21.57;;;19.57;;
8413;SDS011;4244;48.684;9.028;2023-05-02T13:34:53;23.27;;;21.27;;
8413;SDS011;4244;48.684;9.028;2023-05-02T13:37:19;22.13;;;20.20;;
8413;SDS011;4244;48.684;9.028;2023-05-02T13:39:45;18.50;;;16.80;;
8413;SDS011;4244;48.684;9.028;2023-05-02T13:42:11;21.23;;;19.30;;
8413;SDS011;4244;48.684;9.028;2023-05-02T13:44:36;21.93;;;20.10;;
8413;SDS011;4244;48.684;9.028;2023-05-02T13:47:02;21.30;;;19.40;;
8413;SDS011;4244;48.684;9.028;2023-05-02T13:49:28;21.50;;;19.60;;
8413;SDS011;4244;48.684;9.028;2023-05-02T13:51:54;21.00;;;19.07;;
8413;SDS011;4244;48.684;9.028;2023-05-02T13:54:20;16.47;;;14.97;;
8413;SDS011;4244;48.684;9.028;2023-05-02T13:56:46;18.40;;;16.80;;
8413;SDS011;4244;48.684;9.028;2023-05-02T13:59:13;20.00;;;18.20;;
8413;SDS011;4244;48.684;9.028;2023-05-02T14:01:39;21.03;;;18.93;;
8413;SDS011;4244;48.684;9.028;2023-05-02T14:04:05;18.50;;;16.80;;
8413;SDS011;4244;48.684;9.028;2023-05-02T14:06:33;21.70;;;19.63;;
8413;SDS011;4244;48.684;9.028;2023-05-02T14:08:59;21.33;;;19.43;;
8413;SDS011;4244;48.684;9.028;2023-05-02T14:11:25;21.70;;;19.57;;
8413;SDS011;4244;48.684;9.028;2023-05-02T14:13:52;21.20;;;19.07;;
8413;SDS011;4244;48.684;9.028;2023-05-02T14:16:19;21.10;;;19.20;;
8413;SDS011;4244;48.684;9.028;2023-05-02T14:18:44;17.87;;;16.27;;
8413;SDS011;4244;48.684;9.028;2023-05-02T14:21:10;17.97;;;16.43;;
8413;SDS011;4244;48.684;9.028;2023-05-02T14:23:36;17.30;;;15.80;;
8413;SDS011;4244;48.684;9.028;2023-05-02T14:26:03;16.70;;;15.10;;
8413;SDS011;4244;48.684;9.028;2023-05-02T14:28:29;13.17;;;12.00;;
8413;SDS011;4244;48.684;9.028;2023-05-02T14:30:55;12.60;;;11.40;;
8413;SDS011;4244;48.684;9.028;2023-05-02T14:33:20;12.50;;;11.40;;
8413;SDS011;4244;48.684;9.028;2023-05-02T14:35:47;13.13;;;11.90;;
8413;SDS011;4244;48.684;9.028;2023-05-02T14:38:13;16.63;;;14.93;;
8413;SDS011;4244;48.684;9.028;2023-05-02T14:40:38;15.50;;;14.10;;
8413;SDS011;4244;48.684;9.028;2023-05-02T14:43:04;16.10;;;14.50;;
8413;SDS011;4244;48.684;9.028;2023-05-02T14:45:30;15.57;;;13.97;;
8413;SDS011;4244;48.684;9.028;2023-05-02T14:47:56;16.17;;;14.77;;
8413;SDS011;4244;48.684;9.028;2023-05-02T14:50:22;15.33;;;13.87;;
8413;SDS011;4244;48.684;9.028;2023-05-02T14:52:49;15.77;;;14.17;;
8413;SDS011;4244;48.684;9.028;2023-05-02T14:55:15;12.17;;;10.97;;
8413;SDS011;4244;48.684;9.028;2023-05-02T14:57:41;13.20;;;11.97;;
8413;SDS011;4244;48.684;9.028;2023-05-02T15:00:06;13.70;;;12.40;;
8413;SDS011;4244;48.684;9.028;2023-05-02T15:02:34;14.27;;;12.97;;
8413;SDS011;4244;48.684;9.028;2023-05-02T15:05:01;15.67;;;14.10;;
8413;SDS011;4244;48.684;9.028;2023-05-02T15:07:27;13.90;;;12.60;;
8413;SDS011;4244;48.684;9.028;2023-05-02T15:09:53;11.97;;;10.90;;
8413;SDS011;4244;48.684;9.028;2023-05-02T15:12:18;13.50;;;12.10;;
8413;SDS011;4244;48.684;9.028;2023-05-02T15:14:44;11.53;;;10.63;;
8413;SDS011;4244;48.684;9.028;2023-05-02T15:17:10;12.20;;;11.10;;
8413;SDS011;4244;48.684;9.028;2023-05-02T15:19:36;12.90;;;11.60;;
8413;SDS011;4244;48.684;9.028;2023-05-02T15:22:01;12.70;;;11.50;;
8413;SDS011;4244;48.684;9.028;2023-05-02T15:24:27;12.50;;;10.90;;
8413;SDS011;4244;48.684;9.028;2023-05-02T15:26:52;12.33;;;11.20;;
8413;SDS011;4244;48.684;9.028;2023-05-02T15:29:18;12.27;;;11.10;;
8413;SDS011;4244;48.684;9.028;2023-05-02T15:31:44;11.93;;;10.83;;
8413;SDS011;4244;48.684;9.028;2023-05-02T15:34:11;12.77;;;11.53;;
8413;SDS011;4244;48.684;9.028;2023-05-02T15:36:38;12.20;;;10.80;;
8413;SDS011;4244;48.684;9.028;2023-05-02T15:39:05;12.53;;;11.33;;
8413;SDS011;4244;48.684;9.028;2023-05-02T15:41:32;10.40;;;8.70;;
8413;SDS011;4244;48.684;9.028;2023-05-02T15:43:57;8.40;;;7.60;;
8413;SDS011;4244;48.684;9.028;2023-05-02T15:46:23;8.47;;;7.67;;
8413;SDS011;4244;48.684;9.028;2023-05-02T15:48:49;8.07;;;7.33;;
8413;SDS011;4244;48.684;9.028;2023-05-02T15:51:15;8.30;;;7.43;;
8413;SDS011;4244;48.684;9.028;2023-05-02T15:53:42;9.23;;;8.33;;